Time;durP1;ratioP1;P1;durP2;ratioP2;P2;SDS_P1;SDS_P2;PMS_P1;PMS_P2;Temp;Humidity;BMP_temperature;BMP_pressure;BME280_temperature;BME280_humidity;BME280_pressure;Samples;Min_cycle;Max_cycle;Signal;HPM_P1;HPM_P2
2022/09/10 06:07:49;;;;;;;3.00;0.87;;;14.20;99.90;;;;;;1538638;23;20747;-89
2022/09/10 06:10:18;;;;;;;1.00;0.90;;;14.20;99.90;;;;;;4998141;28;20503;-93
2022/09/10 06:12:46;;;;;;;1.60;0.93;;;14.20;99.90;;;;;;5000119;28;20535;-94
2022/09/10 06:15:13;;;;;;;1.73;1.30;;;14.20;99.90;;;;;;4999965;28;20508;-95
2022/09/10 06:17:40;;;;;;;0.90;0.80;;;14.20;99.90;;;;;;4999771;28;20443;-94
2022/09/10 06:20:08;;;;;;;1.00;0.90;;;14.20;99.90;;;;;;4999871;28;20485;-95
2022/09/10 06:22:35;;;;;;;1.03;0.93;;;14.30;99.90;;;;;;4999271;28;20455;-95
2022/09/10 06:25:12;;;;;;;2.17;0.90;;;14.20;99.90;;;;;;4999697;28;20491;-94
2022/09/10 06:27:40;;;;;;;1.47;0.90;;;14.20;99.90;;;;;;4999708;28;20491;-94
2022/09/10 06:30:08;;;;;;;1.30;1.00;;;14.30;99.90;;;;;;4999559;28;20519;-94
2022/09/10 06:32:36;;;;;;;1.10;1.00;;;14.30;99.90;;;;;;4999726;28;20451;-94
2022/09/10 06:35:09;;;;;;;1.13;1.00;;;14.30;99.90;;;;;;4999439;28;20444;-94
2022/09/10 06:37:37;;;;;;;0.80;0.80;;;14.30;99.90;;;;;;4999654;28;20463;-94
2022/09/10 06:40:07;;;;;;;1.43;1.10;;;14.40;99.90;;;;;;4999454;28;20535;-94
2022/09/10 07:22:07;;;;;;;1.13;0.97;;;14.70;99.90;;;;;;3488524;23;20919;-89
2022/09/10 07:24:53;;;;;;;1.20;1.00;;;14.70;99.90;;;;;;5057751;23;20499;-93
2022/09/10 07:27:34;;;;;;;1.60;1.30;;;14.70;99.90;;;;;;4997635;28;20450;-95
2022/09/10 08:35:09;;;;;;;0.97;0.83;;;15.50;99.90;;;;;;1785453;23;20797;-91
2022/09/10 08:37:36;;;;;;;0.97;0.80;;;15.50;99.90;;;;;;4998507;28;20468;-95
2022/09/10 08:40:05;;;;;;;1.20;1.10;;;15.50;99.90;;;;;;5000312;28;20455;-95
2022/09/10 08:42:38;;;;;;;1.10;0.90;;;15.60;99.90;;;;;;5000170;28;20527;-94
2022/09/10 08:45:12;;;;;;;1.17;1.03;;;15.70;99.90;;;;;;5000070;28;20494;-93
2022/09/10 08:53:24;;;;;;;2.90;1.10;;;16.20;99.90;;;;;;5245370;23;20498;-94
2022/09/10 08:55:56;;;;;;;1.20;1.00;;;16.30;99.90;;;;;;4988879;28;20443;-94
2022/09/10 08:58:27;;;;;;;0.90;0.80;;;16.40;99.90;;;;;;4982320;29;20472;-96
2022/09/10 09:00:58;;;;;;;2.17;0.90;;;16.50;99.90;;;;;;4962114;28;20461;-95
2022/09/10 09:03:32;;;;;;;2.70;1.10;;;16.50;99.90;;;;;;4962026;28;20441;-94
2022/09/10 09:06:04;;;;;;;2.33;1.23;;;16.50;99.90;;;;;;4961554;28;20474;-95
2022/09/10 09:08:40;;;;;;;2.53;1.20;;;16.60;99.90;;;;;;4961305;28;20513;-96
2022/09/10 09:11:16;;;;;;;1.23;0.87;;;16.60;99.90;;;;;;4978169;28;20444;-95
2022/09/10 09:13:58;;;;;;;1.67;1.20;;;16.70;99.90;;;;;;4980792;28;20448;-96
2022/09/10 09:17:00;;;;;;;1.57;0.90;;;16.70;99.90;;;;;;5052002;23;20572;-92
2022/09/10 09:19:32;;;;;;;1.63;0.80;;;17.00;99.90;;;;;;4928905;29;20475;-91
2022/09/10 09:22:07;;;;;;;1.33;0.97;;;17.20;99.90;;;;;;4972257;28;20492;-93
2022/09/10 09:24:50;;;;;;;1.47;0.80;;;17.20;99.90;;;;;;4980429;28;20527;-95
2022/09/10 09:27:18;;;;;;;3.67;1.67;;;17.10;99.90;;;;;;4980539;28;20440;-95
2022/09/10 09:29:51;;;;;;;1.30;1.10;;;17.00;99.90;;;;;;4980970;28;20464;-93
2022/09/10 09:32:41;;;;;;;2.03;1.10;;;17.00;99.90;;;;;;4981098;28;20524;-92
2022/09/10 09:38:19;;;;;;;2.43;1.03;;;17.00;99.90;;;;;;4979807;28;20468;-91
2022/09/10 09:40:50;;;;;;;1.00;0.83;;;17.00;99.90;;;;;;4981188;28;20524;-91
2022/09/10 09:43:28;;;;;;;1.43;1.13;;;17.00;99.90;;;;;;4981005;28;20444;-92
2022/09/10 09:46:03;;;;;;;1.83;1.10;;;17.00;99.90;;;;;;4981712;28;20461;-93
2022/09/10 14:03:01;;;;;;;1.10;1.00;;;18.40;99.90;;;;;;3357937;26;20451;-94
2022/09/10 14:05:34;;;;;;;1.30;0.90;;;18.40;99.90;;;;;;5019248;28;20450;-94
2022/09/10 14:08:06;;;;;;;1.70;1.00;;;18.30;99.90;;;;;;5019513;28;20446;-94
2022/09/10 14:10:47;;;;;;;1.33;1.23;;;18.20;99.90;;;;;;5019262;28;20483;-93
2022/09/10 14:13:14;;;;;;;1.23;0.80;;;18.30;99.90;;;;;;5019001;28;20450;-94
2022/09/10 14:15:41;;;;;;;2.03;1.20;;;18.20;99.90;;;;;;5019541;28;20447;-93
2022/09/10 14:18:12;;;;;;;1.60;1.50;;;18.10;99.90;;;;;;5018884;28;20522;-93
2022/09/10 14:20:41;;;;;;;2.50;1.17;;;18.20;99.90;;;;;;5019043;28;20488;-94
2022/09/10 14:23:14;;;;;;;3.10;1.60;;;18.20;99.90;;;;;;5015402;28;20447;-93
2022/09/10 14:25:43;;;;;;;1.57;1.47;;;18.20;99.90;;;;;;5017176;28;20598;-93
2022/09/10 14:28:24;;;;;;;1.47;1.07;;;18.20;99.90;;;;;;5018959;28;20463;-93
2022/09/10 14:30:53;;;;;;;2.20;1.20;;;18.20;99.90;;;;;;5019026;28;20482;-94
2022/09/10 14:33:31;;;;;;;1.10;0.90;;;18.20;99.90;;;;;;5018744;28;20524;-93
2022/09/10 14:36:12;;;;;;;1.03;0.93;;;18.10;99.90;;;;;;5018955;28;20598;-93
2022/09/10 14:38:45;;;;;;;1.10;0.80;;;18.10;99.90;;;;;;5019133;28;20443;-94
2022/09/10 14:41:20;;;;;;;2.23;1.07;;;18.00;99.90;;;;;;5018683;28;20461;-93
2022/09/10 14:43:48;;;;;;;2.53;1.00;;;17.90;99.90;;;;;;5018825;28;20513;-93
2022/09/10 14:46:47;;;;;;;1.10;0.87;;;17.90;99.90;;;;;;5018597;28;20478;-94
2022/09/10 14:49:17;;;;;;;1.30;0.90;;;18.20;99.90;;;;;;5018883;28;20435;-93
2022/09/10 14:51:44;;;;;;;1.30;1.20;;;18.60;99.90;;;;;;5018407;28;21643;-94
2022/09/10 14:54:11;;;;;;;3.47;1.73;;;18.80;99.90;;;;;;5018660;28;20443;-93
2022/09/10 14:56:40;;;;;;;1.40;1.00;;;19.00;99.90;;;;;;5018689;28;20439;-94
2022/09/10 14:59:14;;;;;;;0.90;0.80;;;19.00;99.90;;;;;;5018377;28;20471;-92
2022/09/10 15:01:42;;;;;;;1.93;0.90;;;19.00;99.90;;;;;;5018158;28;20455;-93
2022/09/10 15:04:13;;;;;;;1.57;0.90;;;18.90;99.90;;;;;;5018263;28;20471;-93
2022/09/10 15:06:42;;;;;;;2.97;1.20;;;18.80;99.90;;;;;;5018263;28;20475;-93
2022/09/10 15:09:09;;;;;;;2.00;1.23;;;18.70;99.90;;;;;;5018324;28;20435;-94
2022/09/10 15:11:40;;;;;;;1.80;1.33;;;18.70;99.90;;;;;;5017860;28;20454;-94
2022/09/10 15:14:12;;;;;;;1.10;0.90;;;18.80;99.90;;;;;;5013703;28;20451;-93
2022/09/10 15:16:39;;;;;;;1.13;1.03;;;18.70;99.90;;;;;;5018211;28;20439;-95
2022/09/10 15:19:06;;;;;;;1.80;1.20;;;18.60;99.90;;;;;;5018436;28;20494;-94
2022/09/10 15:21:32;;;;;;;1.10;0.90;;;18.60;99.90;;;;;;5018103;28;20517;-96
2022/09/10 15:24:01;;;;;;;1.03;0.90;;;18.50;99.90;;;;;;5017729;28;20470;-94
2022/09/10 15:26:27;;;;;;;1.97;1.10;;;18.50;99.90;;;;;;5017733;28;20473;-95
2022/09/10 15:28:54;;;;;;;1.70;1.20;;;18.40;99.90;;;;;;5017646;28;20475;-95
2022/09/10 15:31:22;;;;;;;1.63;1.07;;;18.40;99.90;;;;;;5017610;28;20490;-93
2022/09/10 15:33:48;;;;;;;1.30;1.10;;;18.30;99.90;;;;;;5017091;28;20443;-95
2022/09/10 15:36:28;;;;;;;;;;;;;;;;;;;;;
2022/09/10 15:38:54;;;;;;;1.17;0.73;;;18.30;99.90;;;;;;5017209;28;20461;-94
2022/09/10 15:41:23;;;;;;;1.00;0.90;;;18.20;99.90;;;;;;5017521;28;20483;-95
2022/09/10 15:43:50;;;;;;;1.47;1.10;;;18.20;99.90;;;;;;5017569;28;20449;-93
2022/09/10 15:46:18;;;;;;;2.00;0.97;;;18.00;99.90;;;;;;5017649;28;20465;-94
2022/09/10 15:48:47;;;;;;;1.23;1.13;;;18.00;99.90;;;;;;5017580;28;20454;-94
2022/09/10 15:51:16;;;;;;;3.33;1.30;;;17.90;99.90;;;;;;5017765;28;20455;-93
2022/09/10 15:53:44;;;;;;;1.43;1.00;;;17.70;99.90;;;;;;5017065;28;20466;-94
2022/09/10 15:56:12;;;;;;;1.83;1.13;;;17.60;99.90;;;;;;5017569;28;20451;-93
2022/09/10 15:58:42;;;;;;;2.30;1.00;;;17.50;99.90;;;;;;5017440;28;20449;-94
2022/09/10 16:01:11;;;;;;;1.33;1.23;;;17.30;99.90;;;;;;5017408;28;20455;-94
2022/09/10 16:03:38;;;;;;;1.23;1.00;;;17.20;99.90;;;;;;5017319;28;20486;-92
2022/09/10 16:06:07;;;;;;;1.10;1.00;;;17.20;99.90;;;;;;5017395;28;20445;-94
2022/09/10 16:08:34;;;;;;;0.80;0.80;;;17.20;99.90;;;;;;5017451;28;20450;-94
2022/09/10 16:11:07;;;;;;;1.37;0.90;;;17.20;99.90;;;;;;5017241;28;20541;-95
2022/09/10 16:13:36;;;;;;;1.77;1.00;;;17.10;99.90;;;;;;5016773;28;20487;-94
2022/09/10 16:16:07;;;;;;;1.20;1.10;;;17.00;99.90;;;;;;5016329;28;20455;-94
2022/09/10 16:18:35;;;;;;;1.10;1.00;;;16.90;99.90;;;;;;5017326;28;20475;-93
2022/09/10 16:21:10;;;;;;;1.30;1.10;;;16.90;99.90;;;;;;5017423;28;20494;-95
2022/09/10 16:23:39;;;;;;;1.20;1.10;;;16.80;99.90;;;;;;5017162;28;20474;-94
2022/09/10 16:26:07;;;;;;;1.67;1.20;;;16.70;99.90;;;;;;5017239;28;20535;-94
2022/09/10 16:28:34;;;;;;;1.70;1.00;;;16.70;99.90;;;;;;5017302;28;20572;-94
2022/09/10 16:31:17;;;;;;;1.63;1.10;;;16.70;99.90;;;;;;5016974;28;20471;-94
2022/09/10 16:33:45;;;;;;;3.27;1.30;;;16.60;99.90;;;;;;5017142;28;20457;-94
2022/09/10 16:36:13;;;;;;;1.70;1.10;;;16.60;99.90;;;;;;5016703;28;20447;-94
2022/09/10 16:38:42;;;;;;;3.83;1.13;;;16.50;99.90;;;;;;5054136;23;20483;-94
2022/09/10 16:41:11;;;;;;;1.47;1.30;;;16.60;99.90;;;;;;5001215;28;20459;-95
2022/09/10 16:43:38;;;;;;;1.00;0.90;;;16.60;99.90;;;;;;5001508;28;20442;-93
2022/09/10 16:46:08;;;;;;;1.00;0.90;;;16.50;99.90;;;;;;5001707;28;20468;-93
2022/09/10 16:48:38;;;;;;;1.47;1.20;;;16.50;99.90;;;;;;5001115;28;20444;-93
2022/09/10 16:51:06;;;;;;;2.13;1.10;;;16.50;99.90;;;;;;5001299;28;20490;-93
2022/09/10 16:53:35;;;;;;;1.00;0.90;;;16.50;99.90;;;;;;5001093;28;20452;-94
2022/09/10 16:56:04;;;;;;;1.47;1.10;;;16.40;99.90;;;;;;5001293;28;20454;-93
2022/09/10 16:58:33;;;;;;;1.10;1.00;;;16.40;99.90;;;;;;5001197;28;20487;-94
2022/09/10 17:01:00;;;;;;;2.30;1.20;;;16.30;99.90;;;;;;5000787;28;20467;-94
2022/09/10 17:03:28;;;;;;;1.57;1.30;;;16.30;99.90;;;;;;5000965;28;20447;-94
2022/09/10 17:05:59;;;;;;;3.83;1.47;;;16.30;99.90;;;;;;5000944;28;20448;-94
2022/09/10 17:08:28;;;;;;;1.73;1.30;;;16.20;99.90;;;;;;5000825;28;20499;-94
2022/09/10 17:10:55;;;;;;;1.60;1.10;;;16.20;99.90;;;;;;5000713;28;20470;-93
2022/09/10 17:13:22;;;;;;;2.03;1.40;;;16.30;99.90;;;;;;5000346;28;20487;-94
2022/09/10 17:15:49;;;;;;;1.60;1.20;;;16.20;99.90;;;;;;5001001;28;20472;-94
2022/09/10 17:18:16;;;;;;;1.33;1.00;;;16.20;99.90;;;;;;5000657;28;20463;-93
2022/09/10 17:20:43;;;;;;;1.50;1.07;;;16.20;99.90;;;;;;5000766;28;20484;-93
2022/09/10 17:23:12;;;;;;;1.20;1.10;;;16.20;99.90;;;;;;4999594;28;20527;-95
2022/09/10 17:25:39;;;;;;;1.20;1.10;;;16.20;99.90;;;;;;4989214;28;20447;-95
2022/09/10 17:28:06;;;;;;;1.10;0.90;;;16.10;99.90;;;;;;4996334;28;20478;-96
2022/09/10 17:30:33;;;;;;;1.70;1.50;;;16.10;99.90;;;;;;5000615;28;20482;-96
2022/09/10 17:33:00;;;;;;;1.57;1.10;;;16.10;99.90;;;;;;5000833;28;20451;-96
2022/09/10 17:35:27;;;;;;;1.83;1.33;;;16.00;99.90;;;;;;5001270;28;20455;-94
2022/09/10 17:37:57;;;;;;;1.33;1.23;;;16.10;99.90;;;;;;5000711;28;20440;-95
2022/09/10 19:30:38;;;;;;;1.70;1.10;;;15.20;99.90;;;;;;754370;23;20789;-92
2022/09/10 19:33:05;;;;;;;1.47;1.17;;;15.20;99.90;;;;;;4992392;28;20502;-94
2022/09/10 19:35:36;;;;;;;1.13;1.03;;;15.20;99.90;;;;;;4993804;28;20455;-94
2022/09/10 19:38:05;;;;;;;1.90;1.33;;;15.30;99.90;;;;;;4994410;28;20538;-94
2022/09/10 19:40:32;;;;;;;1.20;1.10;;;15.20;99.90;;;;;;4994530;28;20582;-93
2022/09/10 19:45:42;;;;;;;1.20;0.90;;;15.30;99.90;;;;;;4998059;28;20507;-93
2022/09/10 19:48:12;;;;;;;1.33;1.10;;;15.30;99.90;;;;;;4997992;28;20468;-94
2022/09/10 19:50:40;;;;;;;0.90;0.80;;;15.20;99.90;;;;;;4994118;28;20476;-93
2022/09/10 19:53:16;;;;;;;2.17;1.23;;;15.20;99.90;;;;;;4996045;28;20487;-93
2022/09/10 19:55:44;;;;;;;1.53;1.33;;;15.20;99.90;;;;;;4995251;28;20461;-93
2022/09/10 19:58:11;;;;;;;1.87;1.20;;;15.20;99.90;;;;;;4995220;28;20460;-93
2022/09/10 20:00:46;;;;;;;1.10;1.00;;;15.20;99.90;;;;;;4996477;28;20586;-93
2022/09/10 20:03:13;;;;;;;1.23;1.13;;;15.10;99.90;;;;;;4994582;28;20526;-93
2022/09/10 20:08:53;;;;;;;1.50;1.10;;;15.10;99.90;;;;;;4996624;28;20502;-94
2022/09/10 20:17:38;;;;;;;1.33;1.10;;;15.10;99.90;;;;;;4998067;28;20459;-94
2022/09/10 20:25:49;;;;;;;2.50;1.10;;;15.00;99.90;;;;;;4997665;28;20470;-92
2022/09/10 20:31:04;;;;;;;2.80;1.00;;;15.00;99.90;;;;;;4998640;28;20467;-93
2022/09/10 20:33:42;;;;;;;1.47;1.03;;;15.00;99.90;;;;;;5003580;28;20475;-94
2022/09/10 20:51:59;;;;;;;1.10;0.90;;;14.70;99.90;;;;;;5001673;28;20479;-93
2022/09/10 20:59:54;;;;;;;1.03;0.90;;;14.70;99.90;;;;;;4961061;29;20441;-94
2022/09/10 21:02:41;;;;;;;1.20;1.07;;;14.70;99.90;;;;;;4934786;29;20453;-93
2022/09/10 21:08:40;;;;;;;2.67;1.33;;;14.70;99.90;;;;;;5001003;28;20459;-93
2022/09/10 21:11:50;;;;;;;2.00;1.07;;;14.70;99.90;;;;;;4999473;28;20488;-92
2022/09/10 21:14:35;;;;;;;1.50;1.10;;;14.60;99.90;;;;;;5000798;28;20464;-94
2022/09/10 21:19:49;;;;;;;1.73;1.10;;;14.60;99.90;;;;;;5034113;23;20494;-93
2022/09/10 21:22:16;;;;;;;1.23;1.03;;;14.50;99.90;;;;;;5021975;28;20449;-95
2022/09/10 21:24:45;;;;;;;1.10;1.00;;;14.50;99.90;;;;;;5019427;28;20447;-95
2022/09/10 21:27:12;;;;;;;2.90;1.20;;;14.50;99.90;;;;;;5020222;28;20450;-94
2022/09/10 21:29:43;;;;;;;1.10;1.00;;;14.40;99.90;;;;;;5020045;28;20467;-96
2022/09/10 21:32:15;;;;;;;2.80;1.47;;;14.40;99.90;;;;;;5020371;28;20502;-94
2022/09/10 21:34:49;;;;;;;1.80;1.20;;;14.40;99.90;;;;;;5019401;28;20814;-95
2022/09/10 21:37:17;;;;;;;1.23;1.00;;;14.50;99.90;;;;;;5020271;28;20474;-95
